createdAt,value
2018-09-03T00:01:12.092Z,21.48
2018-09-03T00:03:41.299Z,21.55
2018-09-03T00:06:10.629Z,21.53
2018-09-03T00:08:39.703Z,21.57
2018-09-03T00:11:08.944Z,21.56
2018-09-03T00:13:38.125Z,21.45
2018-09-03T00:16:07.524Z,21.35
2018-09-03T00:18:36.361Z,21.38
2018-09-03T00:21:05.417Z,21.32
2018-09-03T00:23:34.883Z,21.32
2018-09-03T00:26:04.166Z,21.36
2018-09-03T00:28:33.308Z,21.33
2018-09-03T00:31:07.598Z,21.35
2018-09-03T00:33:41.824Z,21.46
2018-09-03T00:36:15.859Z,21.52
2018-09-03T00:38:49.764Z,21.60
2018-09-03T00:41:24.383Z,21.61
2018-09-03T00:43:58.668Z,21.75
2018-09-03T00:46:32.786Z,21.76
2018-09-03T00:49:02.079Z,21.79
2018-09-03T00:51:31.463Z,21.80
2018-09-03T00:54:00.555Z,21.86
2018-09-03T00:56:29.791Z,21.88
2018-09-03T00:58:58.612Z,21.94
2018-09-03T01:01:27.594Z,22.00
2018-09-03T01:03:56.572Z,22.09
2018-09-03T01:06:26.152Z,22.10
2018-09-03T01:08:55.301Z,22.09
2018-09-03T01:11:26.412Z,22.05
2018-09-03T01:13:56.807Z,22.03
2018-09-03T01:16:25.733Z,22.00
2018-09-03T01:18:56.024Z,22.02
2018-09-03T01:21:26.304Z,22.04
2018-09-03T01:23:55.756Z,22.04
2018-09-03T01:26:25.148Z,22.03
2018-09-03T01:28:54.308Z,21.95
2018-09-03T01:31:23.285Z,21.85
2018-09-03T01:33:53.457Z,21.77
2018-09-03T01:36:23.028Z,21.70
2018-09-03T01:38:51.904Z,21.65
2018-09-03T01:41:21.182Z,21.60
2018-09-03T01:43:50.460Z,21.56
2018-09-03T01:46:19.824Z,21.51
2018-09-03T01:48:49.144Z,21.50
2018-09-03T01:51:18.440Z,21.39
2018-09-03T01:53:47.948Z,21.37
2018-09-03T01:56:17.169Z,21.38
2018-09-03T01:58:46.365Z,21.38
2018-09-03T02:01:15.496Z,21.35
2018-09-03T02:03:45.054Z,21.37
2018-09-03T02:06:14.273Z,21.36
2018-09-03T02:08:43.335Z,21.24
2018-09-03T02:11:12.637Z,21.20
2018-09-03T02:13:41.637Z,21.12
2018-09-03T02:16:11.063Z,21.03
2018-09-03T02:18:40.497Z,20.97
2018-09-03T02:21:10.110Z,20.99
2018-09-03T02:23:39.571Z,21.01
2018-09-03T02:26:08.387Z,20.82
2018-09-03T02:28:37.680Z,20.74
2018-09-03T02:31:06.526Z,20.61
2018-09-03T02:33:35.931Z,20.58
2018-09-03T02:36:05.060Z,20.49
2018-09-03T02:38:33.952Z,20.38
2018-09-03T02:41:03.444Z,20.41
2018-09-03T02:43:32.451Z,20.40
2018-09-03T02:46:01.648Z,20.57
2018-09-03T02:48:30.635Z,20.34
2018-09-03T02:50:59.891Z,20.26
2018-09-03T02:53:29.280Z,20.23
2018-09-03T02:55:58.641Z,20.13
2018-09-03T02:58:27.742Z,20.13
2018-09-03T03:00:56.777Z,20.08
2018-09-03T03:03:25.796Z,20.22
2018-09-03T03:05:55.046Z,20.23
2018-09-03T03:08:24.242Z,20.27
2018-09-03T03:10:53.097Z,20.27
2018-09-03T03:13:22.088Z,20.23
2018-09-03T03:15:50.984Z,20.35
2018-09-03T03:18:19.841Z,20.25
2018-09-03T03:20:48.736Z,20.30
2018-09-03T03:23:17.817Z,20.34
2018-09-03T03:25:47.132Z,20.23
2018-09-03T03:28:16.007Z,20.18
2018-09-03T03:30:45.061Z,20.17
2018-09-03T03:33:14.548Z,20.08
2018-09-03T03:35:43.880Z,20.08
2018-09-03T03:38:12.905Z,20.10
2018-09-03T03:40:42.201Z,20.09
2018-09-03T03:43:11.504Z,20.18
2018-09-03T03:45:40.998Z,20.22
2018-09-03T03:48:10.328Z,20.14
2018-09-03T03:50:39.717Z,20.08
2018-09-03T03:53:09.209Z,20.07
2018-09-03T03:55:38.089Z,20.07
2018-09-03T03:58:07.368Z,20.10
2018-09-03T04:00:36.512Z,20.09
2018-09-03T04:03:05.708Z,20.15
2018-09-03T04:05:35.078Z,20.07
2018-09-03T04:20:46.276Z,20.45
2018-09-03T04:23:15.854Z,20.37
2018-09-03T04:25:44.823Z,20.41
2018-09-03T04:28:15.474Z,20.44
2018-09-03T04:30:44.738Z,20.44
2018-09-03T04:33:13.771Z,20.50
2018-09-03T04:35:42.840Z,20.55
2018-09-03T04:38:11.665Z,20.60
2018-09-03T04:40:40.688Z,20.68
2018-09-03T04:43:09.615Z,20.86
2018-09-03T04:45:39.000Z,20.94
2018-09-03T04:48:08.028Z,20.99
2018-09-03T04:50:37.260Z,21.08
2018-09-03T04:53:06.443Z,21.20
2018-09-03T04:55:35.901Z,21.11
2018-09-03T04:58:04.893Z,21.33
2018-09-03T05:00:34.003Z,21.19
2018-09-03T05:03:03.309Z,21.27
2018-09-03T05:05:32.256Z,21.36
2018-09-03T05:08:01.676Z,21.55
2018-09-03T05:10:30.706Z,21.62
2018-09-03T05:13:00.085Z,21.70
2018-09-03T05:15:29.072Z,21.99
2018-09-03T05:17:58.096Z,22.03
2018-09-03T05:20:27.087Z,21.96
2018-09-03T05:22:56.968Z,21.93
2018-09-03T05:25:26.131Z,21.99
2018-09-03T05:27:54.976Z,21.97
2018-09-03T05:30:23.844Z,22.26
2018-09-03T05:32:52.773Z,22.37
2018-09-03T05:35:21.680Z,22.27
2018-09-03T05:37:50.604Z,22.37
2018-09-03T05:40:19.607Z,22.60
2018-09-03T05:42:48.460Z,22.58
2018-09-03T05:45:17.499Z,22.45
2018-09-03T05:47:46.347Z,22.51
2018-09-03T05:50:15.365Z,22.72
2018-09-03T05:52:44.365Z,22.68
2018-09-03T05:55:13.592Z,22.53
2018-09-03T05:57:42.500Z,22.57
2018-09-03T06:00:11.702Z,22.78
2018-09-03T06:02:40.732Z,23.03
2018-09-03T06:05:10.150Z,22.94
2018-09-03T06:07:40.343Z,22.88
2018-09-03T06:10:09.247Z,23.03
2018-09-03T06:12:38.871Z,23.12
2018-09-03T06:15:07.852Z,23.36
2018-09-03T06:17:36.771Z,23.47
2018-09-03T06:20:06.242Z,23.41
2018-09-03T06:22:35.233Z,23.36
2018-09-03T06:25:04.496Z,23.46
2018-09-03T06:27:33.340Z,23.52
2018-09-03T06:30:02.327Z,23.64
2018-09-03T06:32:31.292Z,23.79
2018-09-03T06:35:00.237Z,24.00
2018-09-03T06:37:29.141Z,24.11
2018-09-03T06:39:58.124Z,24.16
2018-09-03T06:42:26.975Z,24.40
2018-09-03T06:44:55.961Z,24.95
2018-09-03T06:47:25.265Z,24.83
2018-09-03T06:49:54.168Z,25.03
2018-09-03T06:52:23.149Z,25.45
2018-09-03T06:54:52.015Z,25.18
2018-09-03T06:57:21.444Z,25.54
2018-09-03T06:59:50.453Z,25.73
2018-09-03T07:02:19.447Z,26.26
2018-09-03T07:04:48.459Z,26.51
2018-09-03T07:07:17.784Z,26.61
2018-09-03T07:09:47.069Z,27.25
2018-09-03T07:12:16.149Z,26.63
2018-09-03T07:14:45.144Z,26.53
2018-09-03T07:17:14.309Z,27.09
2018-09-03T07:19:43.176Z,27.83
2018-09-03T07:22:12.368Z,28.72
2018-09-03T07:24:41.651Z,28.44
2018-09-03T07:27:10.889Z,28.46
2018-09-03T07:29:40.109Z,28.95
2018-09-03T07:32:09.436Z,29.37
2018-09-03T07:34:38.251Z,28.99
2018-09-03T07:37:07.383Z,29.03
2018-09-03T07:39:36.436Z,29.22
2018-09-03T07:42:05.419Z,29.40
2018-09-03T07:44:34.376Z,29.30
2018-09-03T07:47:03.376Z,28.25
2018-09-03T07:49:32.371Z,28.30
2018-09-03T07:52:01.490Z,29.31
2018-09-03T07:54:30.657Z,28.65
2018-09-03T07:56:59.523Z,28.55
2018-09-03T07:59:28.854Z,28.21
2018-09-03T08:01:57.708Z,28.97
2018-09-03T08:04:27.141Z,28.06
2018-09-03T08:06:56.129Z,28.77
2018-09-03T08:09:25.031Z,28.68
2018-09-03T08:11:54.016Z,28.69
2018-09-03T08:14:22.855Z,29.19
2018-09-03T08:16:52.062Z,28.38
2018-09-03T08:19:21.324Z,29.48
2018-09-03T08:21:50.762Z,28.33
2018-09-03T08:24:20.145Z,28.07
2018-09-03T08:26:49.481Z,28.97
2018-09-03T08:29:18.547Z,29.01
2018-09-03T08:31:47.901Z,28.96
2018-09-03T08:34:16.777Z,28.57
2018-09-03T08:36:45.812Z,28.52
2018-09-03T08:39:14.836Z,28.05
2018-09-03T08:41:43.873Z,28.94
2018-09-03T08:44:13.197Z,29.03
2018-09-03T08:46:42.165Z,29.38
2018-09-03T08:49:11.404Z,28.75
2018-09-03T08:51:40.211Z,28.40
2018-09-03T08:54:09.425Z,29.14
2018-09-03T08:56:38.797Z,28.88
2018-09-03T08:59:08.161Z,28.58
2018-09-03T09:01:37.389Z,28.78
2018-09-03T09:04:06.650Z,29.71
2018-09-03T09:06:35.812Z,29.18
2018-09-03T09:09:06.378Z,29.44
2018-09-03T09:11:35.342Z,28.90
2018-09-03T09:14:04.317Z,29.25
2018-09-03T09:16:33.709Z,29.74
2018-09-03T09:19:02.785Z,29.54
2018-09-03T09:21:32.156Z,29.01
2018-09-03T09:24:01.556Z,29.54
2018-09-03T09:26:30.979Z,29.81
2018-09-03T09:28:59.983Z,29.50
2018-09-03T09:31:29.087Z,29.69
2018-09-03T09:33:58.245Z,29.14
2018-09-03T09:36:27.198Z,29.66
2018-09-03T09:38:56.173Z,29.47
2018-09-03T09:41:25.494Z,29.09
2018-09-03T09:43:54.712Z,29.33
2018-09-03T09:46:23.810Z,28.87
2018-09-03T09:48:52.944Z,29.12
2018-09-03T09:51:22.359Z,29.05
2018-09-03T09:53:51.314Z,28.94
2018-09-03T09:56:20.709Z,29.21
2018-09-03T09:58:49.615Z,29.30
2018-09-03T10:01:23.679Z,29.12
2018-09-03T10:03:53.080Z,28.86
2018-09-03T10:06:22.325Z,29.64
2018-09-03T10:08:51.508Z,29.19
2018-09-03T10:11:20.439Z,29.25
2018-09-03T10:13:49.850Z,29.59
2018-09-03T10:16:18.879Z,29.14
2018-09-03T10:18:48.197Z,28.75
2018-09-03T10:21:17.397Z,28.79
2018-09-03T10:23:46.548Z,28.86
2018-09-03T10:26:15.832Z,28.61
2018-09-03T10:28:45.056Z,29.00
2018-09-03T10:31:14.275Z,29.00
2018-09-03T10:33:43.514Z,29.17
2018-09-03T10:36:12.994Z,29.25
2018-09-03T10:38:41.911Z,28.55
2018-09-03T10:41:11.150Z,29.01
2018-09-03T10:43:40.226Z,29.34
2018-09-03T10:46:09.244Z,29.38
2018-09-03T10:48:38.456Z,28.88
2018-09-03T10:51:07.444Z,28.76
2018-09-03T10:53:36.409Z,28.37
2018-09-03T10:56:05.556Z,28.89
2018-09-03T10:58:34.632Z,29.43
2018-09-03T11:01:03.497Z,29.16
2018-09-03T11:03:32.593Z,29.04
2018-09-03T11:06:01.525Z,28.52
2018-09-03T11:08:30.532Z,28.96
2018-09-03T11:10:59.391Z,28.77
2018-09-03T11:13:28.657Z,28.51
2018-09-03T11:15:57.824Z,28.52
2018-09-03T11:18:28.604Z,28.52
2018-09-03T11:20:57.968Z,28.71
2018-09-03T11:23:27.169Z,28.67
2018-09-03T11:25:56.353Z,28.20
2018-09-03T11:28:25.364Z,28.27
2018-09-03T11:30:54.856Z,28.28
2018-09-03T11:33:24.196Z,28.35
2018-09-03T11:35:53.514Z,28.57
2018-09-03T11:38:22.613Z,28.47
2018-09-03T11:40:51.682Z,28.38
2018-09-03T11:43:20.875Z,28.01
2018-09-03T11:45:49.935Z,28.08
2018-09-03T11:48:19.146Z,28.30
2018-09-03T11:50:48.195Z,28.56
2018-09-03T11:53:17.144Z,28.34
2018-09-03T11:55:46.343Z,28.81
2018-09-03T11:58:15.300Z,28.33
2018-09-03T12:00:44.284Z,28.84
2018-09-03T12:03:13.153Z,28.90
2018-09-03T12:05:42.148Z,28.74
2018-09-03T12:08:11.179Z,28.62
2018-09-03T12:10:40.411Z,28.40
2018-09-03T12:13:09.855Z,28.54
2018-09-03T12:15:42.172Z,29.03
2018-09-03T12:18:11.438Z,28.89
2018-09-03T12:20:40.293Z,28.71
2018-09-03T12:23:09.272Z,28.84
2018-09-03T12:25:38.466Z,29.01
2018-09-03T12:28:07.249Z,28.71
2018-09-03T12:30:36.121Z,28.66
2018-09-03T12:33:05.011Z,28.68
2018-09-03T12:35:34.752Z,28.39
2018-09-03T12:38:03.716Z,28.75
2018-09-03T12:40:32.688Z,28.78
2018-09-03T12:43:01.661Z,28.78
2018-09-03T12:45:35.570Z,29.09
2018-09-03T12:48:04.484Z,28.46
2018-09-03T12:50:33.432Z,28.59
2018-09-03T12:53:02.359Z,28.71
2018-09-03T12:55:31.340Z,29.19
2018-09-03T12:58:00.222Z,28.51
2018-09-03T13:00:29.051Z,28.70
2018-09-03T13:02:58.056Z,28.60
2018-09-03T13:05:26.980Z,28.59
2018-09-03T13:07:55.900Z,29.17
2018-09-03T13:10:25.030Z,29.10
2018-09-03T13:12:53.864Z,29.05
2018-09-03T13:15:22.694Z,28.91
2018-09-03T13:17:51.911Z,29.38
2018-09-03T13:20:21.084Z,29.48
2018-09-03T13:22:50.185Z,28.86
2018-09-03T13:25:19.413Z,28.85
2018-09-03T13:27:48.584Z,29.32
2018-09-03T13:30:17.790Z,28.60
2018-09-03T13:32:46.680Z,28.92
2018-09-03T13:35:15.575Z,29.54
2018-09-03T13:37:45.012Z,29.09
2018-09-03T13:40:13.990Z,28.97
2018-09-03T13:42:42.993Z,29.10
2018-09-03T13:45:12.198Z,29.14
2018-09-03T13:47:41.085Z,29.39
2018-09-03T13:50:10.128Z,29.69
2018-09-03T13:52:39.283Z,29.44
2018-09-03T13:55:08.513Z,29.47
2018-09-03T13:57:37.412Z,29.78
2018-09-03T14:00:07.385Z,29.64
2018-09-03T14:02:36.720Z,30.12
2018-09-03T14:05:05.606Z,28.94
2018-09-03T14:07:34.584Z,29.93
2018-09-03T14:10:03.655Z,29.27
2018-09-03T14:12:33.053Z,29.29
2018-09-03T14:15:02.026Z,30.04
2018-09-03T14:17:31.179Z,31.19
2018-09-03T14:20:00.139Z,31.39
2018-09-03T14:22:29.188Z,31.26
2018-09-03T14:24:58.245Z,32.93
2018-09-03T14:27:27.360Z,33.04
2018-09-03T14:29:56.274Z,32.97
2018-09-03T14:32:25.326Z,32.44
2018-09-03T14:34:54.385Z,31.78
2018-09-03T14:37:23.338Z,31.85
2018-09-03T14:39:52.389Z,32.09
2018-09-03T14:42:21.419Z,31.28
2018-09-03T14:44:50.482Z,31.18
2018-09-03T14:47:19.586Z,32.41
2018-09-03T14:49:48.736Z,31.78
2018-09-03T14:52:17.781Z,31.92
2018-09-03T14:54:47.281Z,31.09
2018-09-03T14:57:16.314Z,31.66
2018-09-03T14:59:45.895Z,31.98
2018-09-03T15:02:15.272Z,31.91
2018-09-03T15:04:44.458Z,31.98
2018-09-03T15:07:13.663Z,29.98
2018-09-03T15:09:42.825Z,31.55
2018-09-03T15:12:11.745Z,30.89
2018-09-03T15:14:41.176Z,31.31
2018-09-03T15:17:10.598Z,31.32
2018-09-03T15:19:40.102Z,31.25
2018-09-03T15:22:09.340Z,31.75
2018-09-03T15:24:38.278Z,31.57
2018-09-03T15:27:07.594Z,31.66
2018-09-03T15:29:36.962Z,31.45
2018-09-03T15:32:06.474Z,31.64
2018-09-03T15:34:35.773Z,31.18
2018-09-03T15:37:05.243Z,31.35
2018-09-03T15:39:34.313Z,31.29
2018-09-03T15:42:03.623Z,30.63
2018-09-03T15:44:33.494Z,30.32
2018-09-03T15:47:02.963Z,30.11
2018-09-03T15:49:32.326Z,30.30
2018-09-03T15:52:01.725Z,29.49
2018-09-03T15:54:30.818Z,29.61
2018-09-03T15:56:59.992Z,28.38
2018-09-03T15:59:29.029Z,27.64
2018-09-03T16:01:58.100Z,27.25
2018-09-03T16:04:27.142Z,27.20
2018-09-03T16:06:56.174Z,26.79
2018-09-03T16:09:25.402Z,26.50
2018-09-03T16:11:54.792Z,26.55
2018-09-03T16:14:23.904Z,26.25
2018-09-03T16:16:52.745Z,26.55
2018-09-03T16:19:22.023Z,26.48
2018-09-03T16:21:51.255Z,26.22
2018-09-03T16:24:20.179Z,26.56
2018-09-03T16:26:49.451Z,26.52
2018-09-03T16:29:18.691Z,26.34
2018-09-03T16:31:47.963Z,26.28
2018-09-03T16:34:17.441Z,26.29
2018-09-03T16:36:46.287Z,26.28
2018-09-03T16:39:15.107Z,26.02
2018-09-03T16:41:44.426Z,26.16
2018-09-03T16:44:13.776Z,26.09
2018-09-03T16:46:42.988Z,25.97
2018-09-03T16:49:12.499Z,26.09
2018-09-03T16:51:41.603Z,26.03
2018-09-03T16:54:10.900Z,26.07
2018-09-03T16:56:39.900Z,26.00
2018-09-03T16:59:08.886Z,25.61
2018-09-03T17:01:38.263Z,25.95
2018-09-03T17:04:07.524Z,25.92
2018-09-03T17:06:36.564Z,25.88
2018-09-03T17:09:06.328Z,25.93
2018-09-03T17:11:35.361Z,25.96
2018-09-03T17:14:04.624Z,25.98
2018-09-03T17:16:34.019Z,25.96
2018-09-03T17:19:02.987Z,25.58
2018-09-03T17:21:31.898Z,25.55
2018-09-03T17:24:01.284Z,25.63
2018-09-03T17:26:30.649Z,25.74
2018-09-03T17:28:59.748Z,25.57
2018-09-03T17:31:28.727Z,25.75
2018-09-03T17:33:57.575Z,25.53
2018-09-03T17:36:26.483Z,25.78
2018-09-03T17:38:55.476Z,25.88
2018-09-03T17:41:24.331Z,25.79
2018-09-03T17:43:53.275Z,25.93
2018-09-03T17:46:22.193Z,25.93
2018-09-03T17:48:51.623Z,25.54
2018-09-03T17:51:20.471Z,25.74
2018-09-03T17:53:49.291Z,25.60
2018-09-03T17:56:18.260Z,25.79
2018-09-03T17:58:47.288Z,26.13
2018-09-03T18:01:16.340Z,25.71
2018-09-03T18:03:46.343Z,25.78
2018-09-03T18:06:15.476Z,25.63
2018-09-03T18:08:44.587Z,25.88
2018-09-03T18:11:14.049Z,25.67
2018-09-03T18:13:43.035Z,25.82
2018-09-03T18:16:11.934Z,25.72
2018-09-03T18:18:40.928Z,25.55
2018-09-03T18:21:10.228Z,25.27
2018-09-03T18:23:39.683Z,25.27
2018-09-03T18:26:08.708Z,25.32
2018-09-03T18:28:37.562Z,25.39
2018-09-03T18:31:06.450Z,25.47
2018-09-03T18:33:35.508Z,25.49
2018-09-03T18:36:04.388Z,25.55
2018-09-03T18:38:33.967Z,25.53
2018-09-03T18:41:02.929Z,25.44
2018-09-03T18:43:33.078Z,25.51
2018-09-03T18:46:02.253Z,25.44
2018-09-03T18:48:31.701Z,25.43
2018-09-03T18:51:01.031Z,24.88
2018-09-03T18:53:30.013Z,25.01
2018-09-03T18:55:58.843Z,25.00
2018-09-03T18:58:28.294Z,24.84
2018-09-03T19:00:57.615Z,24.65
2018-09-03T19:03:26.792Z,24.76
2018-09-03T19:05:56.114Z,24.85
2018-09-03T19:08:25.632Z,24.80
2018-09-03T19:10:55.188Z,24.48
2018-09-03T19:13:24.304Z,24.30
2018-09-03T19:15:53.288Z,24.07
2018-09-03T19:18:22.276Z,24.16
2018-09-03T19:20:51.387Z,23.95
2018-09-03T19:23:20.670Z,24.05
2018-09-03T19:25:49.565Z,24.01
2018-09-03T19:28:18.467Z,23.84
2018-09-03T19:30:47.384Z,24.26
2018-09-03T19:33:16.382Z,24.15
2018-09-03T19:35:45.346Z,24.28
2018-09-03T19:38:14.413Z,23.94
2018-09-03T19:40:43.252Z,23.63
2018-09-03T19:43:12.280Z,23.55
2018-09-03T19:45:41.298Z,23.68
2018-09-03T19:48:10.228Z,23.81
2018-09-03T19:50:39.321Z,23.74
2018-09-03T19:53:08.305Z,23.87
2018-09-03T19:55:37.235Z,23.81
2018-09-03T19:58:06.414Z,23.64
2018-09-03T20:00:35.490Z,23.58
2018-09-03T20:03:04.549Z,23.86
2018-09-03T20:05:33.664Z,23.74
2018-09-03T20:08:02.476Z,23.76
2018-09-03T20:10:31.433Z,23.37
2018-09-03T20:13:00.435Z,23.40
2018-09-03T20:15:29.360Z,23.39
2018-09-03T20:17:58.213Z,23.38
2018-09-03T20:20:27.147Z,23.32
2018-09-03T20:22:56.192Z,23.18
2018-09-03T20:25:25.109Z,23.58
2018-09-03T20:27:54.130Z,23.76
2018-09-03T20:30:23.305Z,23.56
2018-09-03T20:32:52.510Z,23.53
2018-09-03T20:35:21.536Z,23.63
2018-09-03T20:37:50.452Z,23.54
2018-09-03T20:40:19.304Z,23.33
2018-09-03T20:42:48.270Z,23.28
2018-09-03T20:45:17.360Z,23.21
2018-09-03T20:47:46.344Z,23.11
2018-09-03T20:50:15.621Z,23.20
2018-09-03T20:52:44.908Z,23.35
2018-09-03T20:55:14.292Z,23.78
2018-09-03T20:57:43.144Z,23.45
2018-09-03T21:00:12.608Z,23.53
2018-09-03T21:02:41.783Z,23.46
2018-09-03T21:05:10.883Z,23.37
2018-09-03T21:07:40.124Z,23.59
2018-09-03T21:10:08.986Z,23.18
2018-09-03T21:12:38.297Z,23.23
2018-09-03T21:15:07.520Z,23.31
2018-09-03T21:17:36.391Z,23.32
2018-09-03T21:20:05.964Z,23.22
2018-09-03T21:22:34.839Z,23.20
2018-09-03T21:25:03.912Z,23.10
2018-09-03T21:27:33.237Z,23.22
2018-09-03T21:30:02.484Z,23.25
2018-09-03T21:32:31.387Z,23.13
2018-09-03T21:35:00.812Z,23.02
2018-09-03T21:37:29.959Z,23.04
2018-09-03T21:39:59.093Z,22.99
2018-09-03T21:42:28.376Z,23.02
2018-09-03T21:44:57.511Z,22.79
2018-09-03T21:47:26.900Z,22.77
2018-09-03T21:49:56.040Z,22.89
2018-09-03T21:52:25.448Z,23.18
2018-09-03T21:54:54.382Z,22.94
2018-09-03T21:57:23.304Z,22.76
2018-09-03T21:59:52.749Z,22.76
2018-09-03T22:02:22.011Z,22.84
2018-09-03T22:04:50.839Z,22.75
2018-09-03T22:07:20.064Z,22.88
2018-09-03T22:09:49.432Z,22.78
2018-09-03T22:12:18.624Z,22.66
2018-09-03T22:14:47.975Z,22.78
2018-09-03T22:17:18.069Z,23.13
2018-09-03T22:19:47.167Z,23.17
2018-09-03T22:22:16.439Z,23.00
2018-09-03T22:24:45.615Z,22.76
2018-09-03T22:27:14.731Z,22.70
2018-09-03T22:29:44.117Z,22.62
2018-09-03T22:32:13.108Z,22.78
2018-09-03T22:34:42.047Z,23.14
2018-09-03T22:37:10.964Z,22.89
2018-09-03T22:39:39.991Z,22.90
2018-09-03T22:42:09.263Z,22.72
2018-09-03T22:44:38.287Z,22.94
2018-09-03T22:47:07.464Z,23.21
2018-09-03T22:49:36.733Z,22.81
2018-09-03T22:52:05.987Z,22.69
2018-09-03T22:54:34.947Z,22.61
2018-09-03T22:57:04.099Z,22.60
2018-09-03T22:59:33.336Z,22.42
2018-09-03T23:02:02.647Z,22.23
2018-09-03T23:04:31.768Z,22.14
2018-09-03T23:07:00.640Z,22.13
2018-09-03T23:09:29.668Z,22.07
2018-09-03T23:11:59.128Z,22.00
2018-09-03T23:14:28.302Z,22.19
2018-09-03T23:16:57.710Z,22.17
2018-09-03T23:19:26.639Z,22.20
2018-09-03T23:21:55.687Z,22.13
2018-09-03T23:24:24.908Z,21.99
2018-09-03T23:26:53.883Z,21.86
2018-09-03T23:29:22.763Z,21.84
2018-09-03T23:31:51.664Z,21.82
2018-09-03T23:34:20.844Z,21.82
2018-09-03T23:36:50.309Z,21.98
2018-09-03T23:39:19.292Z,21.78
2018-09-03T23:41:48.268Z,21.61
2018-09-03T23:44:17.711Z,21.60
2018-09-03T23:46:46.831Z,21.72
2018-09-03T23:49:15.681Z,21.70
2018-09-03T23:51:44.912Z,21.64
2018-09-03T23:54:13.909Z,21.67
2018-09-03T23:56:42.904Z,21.52
2018-09-03T23:59:12.225Z,21.50
